sensor_id;sensor_type;location;lat;lon;timestamp;pressure;altitude;pressure_sealevel;temperature;humidity
74868;BME280;63419;42.262;12.210;2023-01-29T00:01:09;97535.81;;;7.40;100.00
74868;BME280;63419;42.262;12.210;2023-01-29T00:03:40;97533.13;;;7.26;100.00
74868;BME280;63419;42.262;12.210;2023-01-29T00:06:14;97532.75;;;7.16;100.00
74868;BME280;63419;42.262;12.210;2023-01-29T00:08:41;97536.97;;;7.35;100.00
74868;BME280;63419;42.262;12.210;2023-01-29T00:11:09;97531.25;;;7.12;100.00
74868;BME280;63419;42.262;12.210;2023-01-29T00:13:36;97533.63;;;7.66;100.00
74868;BME280;63419;42.262;12.210;2023-01-29T00:16:03;97535.06;;;7.72;100.00
74868;BME280;63419;42.262;12.210;2023-01-29T00:18:31;97524.59;;;7.59;100.00
74868;BME280;63419;42.262;12.210;2023-01-29T00:20:58;97530.13;;;7.51;100.00
74868;BME280;63419;42.262;12.210;2023-01-29T00:23:26;97534.94;;;7.24;100.00
74868;BME280;63419;42.262;12.210;2023-01-29T00:25:53;97529.75;;;7.75;100.00
74868;BME280;63419;42.262;12.210;2023-01-29T00:28:24;97536.50;;;7.27;100.00
74868;BME280;63419;42.262;12.210;2023-01-29T00:30:51;97537.09;;;7.82;100.00
74868;BME280;63419;42.262;12.210;2023-01-29T00:33:18;97530.09;;;7.69;100.00
74868;BME280;63419;42.262;12.210;2023-01-29T00:35:46;97540.72;;;7.45;100.00
74868;BME280;63419;42.262;12.210;2023-01-29T00:38:14;97534.53;;;7.49;100.00
74868;BME280;63419;42.262;12.210;2023-01-29T00:40:41;97542.03;;;7.19;100.00
74868;BME280;63419;42.262;12.210;2023-01-29T00:43:27;97541.16;;;7.53;100.00
74868;BME280;63419;42.262;12.210;2023-01-29T00:46:38;97535.03;;;7.56;100.00
74868;BME280;63419;42.262;12.210;2023-01-29T00:49:06;97550.88;;;7.13;100.00
74868;BME280;63419;42.262;12.210;2023-01-29T00:51:36;97546.56;;;7.31;100.00
74868;BME280;63419;42.262;12.210;2023-01-29T00:54:04;97546.00;;;7.59;100.00
74868;BME280;63419;42.262;12.210;2023-01-29T00:56:35;97542.38;;;7.79;100.00
74868;BME280;63419;42.262;12.210;2023-01-29T00:59:03;97548.72;;;7.39;100.00
74868;BME280;63419;42.262;12.210;2023-01-29T01:01:30;97547.66;;;7.43;100.00
74868;BME280;63419;42.262;12.210;2023-01-29T01:04:17;97552.88;;;7.41;100.00
74868;BME280;63419;42.262;12.210;2023-01-29T01:06:44;97552.78;;;7.60;100.00
74868;BME280;63419;42.262;12.210;2023-01-29T01:09:11;97548.56;;;7.59;100.00
74868;BME280;63419;42.262;12.210;2023-01-29T01:11:57;97553.41;;;7.81;100.00
74868;BME280;63419;42.262;12.210;2023-01-29T01:14:25;97544.59;;;7.36;100.00
74868;BME280;63419;42.262;12.210;2023-01-29T01:16:52;97547.03;;;7.22;100.00
74868;BME280;63419;42.262;12.210;2023-01-29T01:19:19;97545.81;;;7.62;100.00
74868;BME280;63419;42.262;12.210;2023-01-29T01:21:46;97549.38;;;6.92;100.00
74868;BME280;63419;42.262;12.210;2023-01-29T01:24:14;97545.06;;;6.92;100.00
74868;BME280;63419;42.262;12.210;2023-01-29T01:26:42;97546.56;;;6.96;100.00
74868;BME280;63419;42.262;12.210;2023-01-29T01:29:10;97554.31;;;6.95;100.00
74868;BME280;63419;42.262;12.210;2023-01-29T01:31:39;97551.44;;;7.36;100.00
74868;BME280;63419;42.262;12.210;2023-01-29T01:34:08;97542.31;;;7.48;100.00
74868;BME280;63419;42.262;12.210;2023-01-29T01:39:35;97554.63;;;6.89;100.00
74868;BME280;63419;42.262;12.210;2023-01-29T01:42:02;97556.44;;;6.86;100.00
74868;BME280;63419;42.262;12.210;2023-01-29T01:45:00;97552.69;;;6.94;100.00
74868;BME280;63419;42.262;12.210;2023-01-29T01:47:47;97554.38;;;6.39;100.00
74868;BME280;63419;42.262;12.210;2023-01-29T01:50:23;97550.97;;;6.58;100.00
74868;BME280;63419;42.262;12.210;2023-01-29T01:53:03;97552.34;;;6.82;100.00
74868;BME280;63419;42.262;12.210;2023-01-29T01:55:57;97558.31;;;6.46;100.00
74868;BME280;63419;42.262;12.210;2023-01-29T01:58:36;97560.84;;;6.29;100.00
74868;BME280;63419;42.262;12.210;2023-01-29T02:01:07;97558.56;;;6.23;100.00
74868;BME280;63419;42.262;12.210;2023-01-29T02:06:48;97561.25;;;6.58;100.00
74868;BME280;63419;42.262;12.210;2023-01-29T02:09:48;97564.31;;;6.09;100.00
74868;BME280;63419;42.262;12.210;2023-01-29T02:12:19;97566.81;;;6.10;100.00
74868;BME280;63419;42.262;12.210;2023-01-29T02:14:50;97563.59;;;6.43;100.00
74868;BME280;63419;42.262;12.210;2023-01-29T02:21:49;97560.75;;;6.50;100.00
74868;BME280;63419;42.262;12.210;2023-01-29T02:25:02;97568.91;;;5.82;100.00
74868;BME280;63419;42.262;12.210;2023-01-29T02:30:30;97564.44;;;6.25;100.00
74868;BME280;63419;42.262;12.210;2023-01-29T02:33:17;97568.84;;;6.59;100.00
74868;BME280;63419;42.262;12.210;2023-01-29T02:39:33;97574.28;;;6.34;100.00
74868;BME280;63419;42.262;12.210;2023-01-29T02:42:16;97570.81;;;6.35;100.00
74868;BME280;63419;42.262;12.210;2023-01-29T02:45:04;97580.09;;;6.00;100.00
74868;BME280;63419;42.262;12.210;2023-01-29T02:47:47;97566.88;;;6.28;100.00
74868;BME280;63419;42.262;12.210;2023-01-29T02:50:32;97582.28;;;5.88;100.00
74868;BME280;63419;42.262;12.210;2023-01-29T02:53:14;97576.25;;;5.89;100.00
74868;BME280;63419;42.262;12.210;2023-01-29T03:02:09;97589.50;;;6.18;100.00
74868;BME280;63419;42.262;12.210;2023-01-29T03:04:48;97594.22;;;6.08;100.00
74868;BME280;63419;42.262;12.210;2023-01-29T03:07:25;97591.94;;;6.02;100.00
74868;BME280;63419;42.262;12.210;2023-01-29T03:10:20;97591.75;;;6.26;100.00
74868;BME280;63419;42.262;12.210;2023-01-29T03:12:59;97592.63;;;6.06;100.00
74868;BME280;63419;42.262;12.210;2023-01-29T03:15:35;97600.41;;;5.84;100.00
74868;BME280;63419;42.262;12.210;2023-01-29T03:18:14;97596.28;;;6.00;100.00
74868;BME280;63419;42.262;12.210;2023-01-29T03:20:50;97605.03;;;5.96;100.00
74868;BME280;63419;42.262;12.210;2023-01-29T03:23:25;97594.31;;;6.26;100.00
74868;BME280;63419;42.262;12.210;2023-01-29T03:26:20;97600.59;;;5.79;100.00
74868;BME280;63419;42.262;12.210;2023-01-29T03:29:08;97608.09;;;5.84;100.00
74868;BME280;63419;42.262;12.210;2023-01-29T03:31:56;97610.16;;;6.34;100.00
74868;BME280;63419;42.262;12.210;2023-01-29T03:34:43;97601.94;;;6.27;100.00
74868;BME280;63419;42.262;12.210;2023-01-29T03:37:29;97607.03;;;5.88;100.00
74868;BME280;63419;42.262;12.210;2023-01-29T03:40:06;97611.97;;;6.32;100.00
74868;BME280;63419;42.262;12.210;2023-01-29T03:45:59;97608.03;;;5.85;100.00
74868;BME280;63419;42.262;12.210;2023-01-29T03:51:37;97616.69;;;5.42;100.00
74868;BME280;63419;42.262;12.210;2023-01-29T03:54:27;97609.22;;;5.37;100.00
74868;BME280;63419;42.262;12.210;2023-01-29T03:57:11;97612.66;;;5.98;100.00
74868;BME280;63419;42.262;12.210;2023-01-29T04:02:23;97620.47;;;5.74;100.00
74868;BME280;63419;42.262;12.210;2023-01-29T04:05:04;97618.91;;;5.70;100.00
74868;BME280;63419;42.262;12.210;2023-01-29T04:07:37;97621.94;;;5.80;100.00
74868;BME280;63419;42.262;12.210;2023-01-29T04:10:12;97617.72;;;5.58;100.00
74868;BME280;63419;42.262;12.210;2023-01-29T04:12:49;97614.25;;;5.59;100.00
74868;BME280;63419;42.262;12.210;2023-01-29T04:15:19;97616.88;;;5.78;100.00
74868;BME280;63419;42.262;12.210;2023-01-29T04:17:51;97620.84;;;5.65;100.00
74868;BME280;63419;42.262;12.210;2023-01-29T04:20:20;97618.47;;;5.60;100.00
74868;BME280;63419;42.262;12.210;2023-01-29T04:22:50;97612.84;;;5.31;100.00
74868;BME280;63419;42.262;12.210;2023-01-29T04:25:41;97614.72;;;5.88;100.00
74868;BME280;63419;42.262;12.210;2023-01-29T04:28:26;97608.50;;;5.54;100.00
74868;BME280;63419;42.262;12.210;2023-01-29T04:31:00;97605.16;;;5.52;100.00
74868;BME280;63419;42.262;12.210;2023-01-29T04:36:58;97599.97;;;5.74;100.00
74868;BME280;63419;42.262;12.210;2023-01-29T04:42:37;97604.53;;;5.86;100.00
74868;BME280;63419;42.262;12.210;2023-01-29T04:50:53;97605.28;;;5.49;100.00
74868;BME280;63419;42.262;12.210;2023-01-29T04:54:03;97616.88;;;5.78;100.00
74868;BME280;63419;42.262;12.210;2023-01-29T04:57:13;97610.28;;;5.72;100.00
74868;BME280;63419;42.262;12.210;2023-01-29T04:59:54;97607.03;;;5.88;100.00
74868;BME280;63419;42.262;12.210;2023-01-29T05:02:25;97616.94;;;5.77;100.00
74868;BME280;63419;42.262;12.210;2023-01-29T05:04:56;97622.31;;;5.50;100.00
74868;BME280;63419;42.262;12.210;2023-01-29T05:07:29;97622.56;;;5.85;100.00
74868;BME280;63419;42.262;12.210;2023-01-29T05:09:57;97617.69;;;5.79;100.00
74868;BME280;63419;42.262;12.210;2023-01-29T05:12:46;97620.25;;;5.99;100.00
74868;BME280;63419;42.262;12.210;2023-01-29T05:15:22;97629.41;;;5.84;100.00
74868;BME280;63419;42.262;12.210;2023-01-29T05:17:52;97625.94;;;5.65;100.00
74868;BME280;63419;42.262;12.210;2023-01-29T05:20:20;97627.94;;;5.79;100.00
74868;BME280;63419;42.262;12.210;2023-01-29T05:22:47;97632.56;;;5.50;100.00
74868;BME280;63419;42.262;12.210;2023-01-29T05:25:29;97628.72;;;5.60;100.00
74868;BME280;63419;42.262;12.210;2023-01-29T05:27:58;97631.19;;;5.82;100.00
74868;BME280;63419;42.262;12.210;2023-01-29T05:30:39;97624.44;;;5.61;100.00
74868;BME280;63419;42.262;12.210;2023-01-29T05:33:22;97622.00;;;5.37;100.00
74868;BME280;63419;42.262;12.210;2023-01-29T05:35:50;97628.97;;;5.54;100.00
74868;BME280;63419;42.262;12.210;2023-01-29T05:38:18;97620.84;;;5.44;100.00
74868;BME280;63419;42.262;12.210;2023-01-29T05:40:46;97617.81;;;5.34;100.00
74868;BME280;63419;42.262;12.210;2023-01-29T05:43:16;97617.59;;;5.41;100.00
74868;BME280;63419;42.262;12.210;2023-01-29T05:45:58;97624.88;;;5.29;100.00
74868;BME280;63419;42.262;12.210;2023-01-29T05:48:28;97632.84;;;5.22;100.00
74868;BME280;63419;42.262;12.210;2023-01-29T05:51:03;97637.38;;;5.15;100.00
74868;BME280;63419;42.262;12.210;2023-01-29T05:53:32;97635.50;;;5.41;100.00
74868;BME280;63419;42.262;12.210;2023-01-29T05:56:03;97625.53;;;5.55;100.00
74868;BME280;63419;42.262;12.210;2023-01-29T05:58:38;97636.41;;;5.60;100.00
74868;BME280;63419;42.262;12.210;2023-01-29T06:01:15;97642.03;;;5.48;100.00
74868;BME280;63419;42.262;12.210;2023-01-29T06:03:45;97639.66;;;5.64;100.00
74868;BME280;63419;42.262;12.210;2023-01-29T06:06:13;97646.78;;;5.37;100.00
74868;BME280;63419;42.262;12.210;2023-01-29T06:08:41;97649.28;;;5.16;100.00
74868;BME280;63419;42.262;12.210;2023-01-29T06:11:11;97654.63;;;5.32;100.00
74868;BME280;63419;42.262;12.210;2023-01-29T06:13:39;97658.22;;;5.06;100.00
74868;BME280;63419;42.262;12.210;2023-01-29T06:16:08;97662.56;;;5.46;100.00
74868;BME280;63419;42.262;12.210;2023-01-29T06:18:36;97670.09;;;5.29;100.00
74868;BME280;63419;42.262;12.210;2023-01-29T06:21:05;97673.47;;;5.51;100.00
74868;BME280;63419;42.262;12.210;2023-01-29T06:23:34;97671.50;;;5.58;100.00
74868;BME280;63419;42.262;12.210;2023-01-29T06:26:16;97677.88;;;5.48;100.00
74868;BME280;63419;42.262;12.210;2023-01-29T06:28:43;97690.72;;;5.26;100.00
74868;BME280;63419;42.262;12.210;2023-01-29T06:31:11;97689.09;;;5.23;100.00
74868;BME280;63419;42.262;12.210;2023-01-29T06:33:58;97690.41;;;5.54;100.00
74868;BME280;63419;42.262;12.210;2023-01-29T06:36:26;97699.31;;;5.23;100.00
74868;BME280;63419;42.262;12.210;2023-01-29T06:39:00;97697.59;;;5.46;100.00
74868;BME280;63419;42.262;12.210;2023-01-29T06:41:27;97691.06;;;5.39;100.00
74868;BME280;63419;42.262;12.210;2023-01-29T06:43:55;97696.81;;;5.44;100.00
74868;BME280;63419;42.262;12.210;2023-01-29T06:46:22;59665.06;;;-143.63;100.00
74868;BME280;63419;42.262;12.210;2023-01-29T06:48:50;59665.06;;;-143.63;100.00
74868;BME280;63419;42.262;12.210;2023-01-29T06:51:18;59665.06;;;-143.63;100.00
74868;BME280;63419;42.262;12.210;2023-01-29T06:53:47;59665.06;;;-143.63;100.00
74868;BME280;63419;42.262;12.210;2023-01-29T06:56:15;59665.06;;;-143.63;100.00
74868;BME280;63419;42.262;12.210;2023-01-29T06:58:42;59665.06;;;-143.63;100.00
74868;BME280;63419;42.262;12.210;2023-01-29T07:01:11;59665.06;;;-143.63;100.00
74868;BME280;63419;42.262;12.210;2023-01-29T07:03:59;59665.06;;;-143.63;100.00
74868;BME280;63419;42.262;12.210;2023-01-29T07:06:39;59665.06;;;-143.63;100.00
74868;BME280;63419;42.262;12.210;2023-01-29T07:09:13;59665.06;;;-143.63;100.00
74868;BME280;63419;42.262;12.210;2023-01-29T07:11:40;59665.06;;;-143.63;100.00
74868;BME280;63419;42.262;12.210;2023-01-29T07:14:08;59665.06;;;-143.63;100.00
74868;BME280;63419;42.262;12.210;2023-01-29T07:16:38;59665.06;;;-143.63;100.00
74868;BME280;63419;42.262;12.210;2023-01-29T07:19:07;59665.06;;;-143.63;100.00
74868;BME280;63419;42.262;12.210;2023-01-29T07:21:34;59665.06;;;-143.63;100.00
74868;BME280;63419;42.262;12.210;2023-01-29T07:24:01;59665.06;;;-143.63;100.00
74868;BME280;63419;42.262;12.210;2023-01-29T07:26:29;59665.06;;;-143.63;100.00
74868;BME280;63419;42.262;12.210;2023-01-29T07:28:57;59665.06;;;-143.63;100.00
74868;BME280;63419;42.262;12.210;2023-01-29T07:31:24;59665.06;;;-143.63;100.00
74868;BME280;63419;42.262;12.210;2023-01-29T07:33:52;59665.06;;;-143.63;100.00
74868;BME280;63419;42.262;12.210;2023-01-29T07:36:19;59665.06;;;-143.63;100.00
74868;BME280;63419;42.262;12.210;2023-01-29T07:38:50;59665.06;;;-143.63;100.00
74868;BME280;63419;42.262;12.210;2023-01-29T07:41:18;59665.06;;;-143.63;100.00
74868;BME280;63419;42.262;12.210;2023-01-29T07:43:46;59665.06;;;-143.63;100.00
74868;BME280;63419;42.262;12.210;2023-01-29T07:46:14;59665.06;;;-143.63;100.00
74868;BME280;63419;42.262;12.210;2023-01-29T07:48:41;59665.06;;;-143.63;100.00
74868;BME280;63419;42.262;12.210;2023-01-29T07:51:09;59665.06;;;-143.63;100.00
74868;BME280;63419;42.262;12.210;2023-01-29T07:53:37;59665.06;;;-143.63;100.00
74868;BME280;63419;42.262;12.210;2023-01-29T07:56:05;59665.06;;;-143.63;100.00
74868;BME280;63419;42.262;12.210;2023-01-29T07:58:42;59665.06;;;-143.63;100.00
74868;BME280;63419;42.262;12.210;2023-01-29T08:01:11;59665.06;;;-143.63;100.00
74868;BME280;63419;42.262;12.210;2023-01-29T08:03:38;59665.06;;;-143.63;100.00
74868;BME280;63419;42.262;12.210;2023-01-29T08:06:06;59665.06;;;-143.63;100.00
74868;BME280;63419;42.262;12.210;2023-01-29T08:08:34;59665.06;;;-143.63;100.00
74868;BME280;63419;42.262;12.210;2023-01-29T08:11:03;59665.06;;;-143.63;100.00
74868;BME280;63419;42.262;12.210;2023-01-29T08:13:32;59665.06;;;-143.63;100.00
74868;BME280;63419;42.262;12.210;2023-01-29T08:16:01;59665.06;;;-143.63;100.00
74868;BME280;63419;42.262;12.210;2023-01-29T08:18:29;59665.06;;;-143.63;100.00
74868;BME280;63419;42.262;12.210;2023-01-29T08:21:01;59665.06;;;-143.63;100.00
74868;BME280;63419;42.262;12.210;2023-01-29T08:23:28;59665.06;;;-143.63;100.00
74868;BME280;63419;42.262;12.210;2023-01-29T08:25:56;59665.06;;;-143.63;100.00
74868;BME280;63419;42.262;12.210;2023-01-29T08:28:23;59665.06;;;-143.63;100.00
74868;BME280;63419;42.262;12.210;2023-01-29T08:30:51;59665.06;;;-143.63;100.00
74868;BME280;63419;42.262;12.210;2023-01-29T08:33:19;59665.06;;;-143.63;100.00
74868;BME280;63419;42.262;12.210;2023-01-29T08:36:00;59665.06;;;-143.63;100.00
74868;BME280;63419;42.262;12.210;2023-01-29T08:39:03;59665.06;;;-143.63;100.00
74868;BME280;63419;42.262;12.210;2023-01-29T08:41:32;59665.06;;;-143.63;100.00
74868;BME280;63419;42.262;12.210;2023-01-29T08:43:59;59665.06;;;-143.63;100.00
74868;BME280;63419;42.262;12.210;2023-01-29T08:46:28;59665.06;;;-143.63;100.00
74868;BME280;63419;42.262;12.210;2023-01-29T08:49:03;59665.06;;;-143.63;100.00
74868;BME280;63419;42.262;12.210;2023-01-29T08:51:30;59665.06;;;-143.63;100.00
74868;BME280;63419;42.262;12.210;2023-01-29T08:53:58;59665.06;;;-143.63;100.00
74868;BME280;63419;42.262;12.210;2023-01-29T08:56:26;59665.06;;;-143.63;100.00
74868;BME280;63419;42.262;12.210;2023-01-29T08:58:54;59665.06;;;-143.63;100.00
74868;BME280;63419;42.262;12.210;2023-01-29T09:01:24;59665.06;;;-143.63;100.00
74868;BME280;63419;42.262;12.210;2023-01-29T09:03:51;59665.06;;;-143.63;100.00
74868;BME280;63419;42.262;12.210;2023-01-29T09:06:18;59665.06;;;-143.63;100.00
74868;BME280;63419;42.262;12.210;2023-01-29T09:08:49;59665.06;;;-143.63;100.00
74868;BME280;63419;42.262;12.210;2023-01-29T09:11:16;59665.06;;;-143.63;100.00
74868;BME280;63419;42.262;12.210;2023-01-29T09:13:43;59665.06;;;-143.63;100.00
74868;BME280;63419;42.262;12.210;2023-01-29T09:16:11;59665.06;;;-143.63;100.00
74868;BME280;63419;42.262;12.210;2023-01-29T09:19:00;59665.06;;;-143.63;100.00
74868;BME280;63419;42.262;12.210;2023-01-29T09:21:55;59665.06;;;-143.63;100.00
74868;BME280;63419;42.262;12.210;2023-01-29T09:24:24;59665.06;;;-143.63;100.00
74868;BME280;63419;42.262;12.210;2023-01-29T09:26:51;59665.06;;;-143.63;100.00
74868;BME280;63419;42.262;12.210;2023-01-29T09:29:18;59665.06;;;-143.63;100.00
74868;BME280;63419;42.262;12.210;2023-01-29T09:31:45;59665.06;;;-143.63;100.00
74868;BME280;63419;42.262;12.210;2023-01-29T09:34:13;59665.06;;;-143.63;100.00
74868;BME280;63419;42.262;12.210;2023-01-29T09:36:42;59665.06;;;-143.63;100.00
74868;BME280;63419;42.262;12.210;2023-01-29T09:39:15;59665.06;;;-143.63;100.00
74868;BME280;63419;42.262;12.210;2023-01-29T09:41:55;59665.06;;;-143.63;100.00
74868;BME280;63419;42.262;12.210;2023-01-29T09:47:26;59665.06;;;-143.63;100.00
74868;BME280;63419;42.262;12.210;2023-01-29T09:50:16;59665.06;;;-143.63;100.00
74868;BME280;63419;42.262;12.210;2023-01-29T09:53:18;59665.06;;;-143.63;100.00
74868;BME280;63419;42.262;12.210;2023-01-29T09:55:59;59665.06;;;-143.63;100.00
74868;BME280;63419;42.262;12.210;2023-01-29T09:58:41;59665.06;;;-143.63;100.00
74868;BME280;63419;42.262;12.210;2023-01-29T10:25:04;59665.06;;;-143.63;100.00
74868;BME280;63419;42.262;12.210;2023-01-29T10:27:39;59665.06;;;-143.63;100.00
74868;BME280;63419;42.262;12.210;2023-01-29T10:33:48;59665.06;;;-143.63;100.00
74868;BME280;63419;42.262;12.210;2023-01-29T10:36:44;59665.06;;;-143.63;100.00
74868;BME280;63419;42.262;12.210;2023-01-29T10:39:19;59665.06;;;-143.63;100.00
74868;BME280;63419;42.262;12.210;2023-01-29T10:48:37;59665.06;;;-143.63;100.00
74868;BME280;63419;42.262;12.210;2023-01-29T10:50:53;59665.06;;;-143.63;100.00
74868;BME280;63419;42.262;12.210;2023-01-29T10:59:13;59665.06;;;-143.63;100.00
74868;BME280;63419;42.262;12.210;2023-01-29T11:01:44;59665.06;;;-143.63;100.00
74868;BME280;63419;42.262;12.210;2023-01-29T11:04:14;59665.06;;;-143.63;100.00
74868;BME280;63419;42.262;12.210;2023-01-29T11:06:42;59665.06;;;-143.63;100.00
74868;BME280;63419;42.262;12.210;2023-01-29T11:09:41;59665.06;;;-143.63;100.00
74868;BME280;63419;42.262;12.210;2023-01-29T11:12:18;59665.06;;;-143.63;100.00
74868;BME280;63419;42.262;12.210;2023-01-29T11:18:12;59665.06;;;-143.63;100.00
74868;BME280;63419;42.262;12.210;2023-01-29T11:24:15;59665.06;;;-143.63;100.00
74868;BME280;63419;42.262;12.210;2023-01-29T11:26:47;59665.06;;;-143.63;100.00
74868;BME280;63419;42.262;12.210;2023-01-29T11:29:44;59665.06;;;-143.63;100.00
74868;BME280;63419;42.262;12.210;2023-01-29T11:32:28;59665.06;;;-143.63;100.00
74868;BME280;63419;42.262;12.210;2023-01-29T11:38:18;59665.06;;;-143.63;100.00
74868;BME280;63419;42.262;12.210;2023-01-29T11:41:19;59665.06;;;-143.63;100.00
74868;BME280;63419;42.262;12.210;2023-01-29T11:43:48;59665.06;;;-143.63;100.00
74868;BME280;63419;42.262;12.210;2023-01-29T11:54:39;59665.06;;;-143.63;100.00
74868;BME280;63419;42.262;12.210;2023-01-29T11:57:36;59665.06;;;-143.63;100.00
74868;BME280;63419;42.262;12.210;2023-01-29T12:00:33;59665.06;;;-143.63;100.00
74868;BME280;63419;42.262;12.210;2023-01-29T12:03:48;59665.06;;;-143.63;100.00
74868;BME280;63419;42.262;12.210;2023-01-29T12:06:43;59665.06;;;-143.63;100.00
74868;BME280;63419;42.262;12.210;2023-01-29T12:09:23;59665.06;;;-143.63;100.00
74868;BME280;63419;42.262;12.210;2023-01-29T12:11:54;59665.06;;;-143.63;100.00
74868;BME280;63419;42.262;12.210;2023-01-29T12:14:32;59665.06;;;-143.63;100.00
74868;BME280;63419;42.262;12.210;2023-01-29T12:17:22;59665.06;;;-143.63;100.00
74868;BME280;63419;42.262;12.210;2023-01-29T12:20:02;59665.06;;;-143.63;100.00
74868;BME280;63419;42.262;12.210;2023-01-29T12:22:55;59665.06;;;-143.63;100.00
74868;BME280;63419;42.262;12.210;2023-01-29T12:26:03;59665.06;;;-143.63;100.00
74868;BME280;63419;42.262;12.210;2023-01-29T12:28:49;59665.06;;;-143.63;100.00
74868;BME280;63419;42.262;12.210;2023-01-29T12:38:03;59665.06;;;-143.63;100.00
74868;BME280;63419;42.262;12.210;2023-01-29T12:44:53;59665.06;;;-143.63;100.00
74868;BME280;63419;42.262;12.210;2023-01-29T12:47:51;59665.06;;;-143.63;100.00
74868;BME280;63419;42.262;12.210;2023-01-29T12:50:26;59665.06;;;-143.63;100.00
74868;BME280;63419;42.262;12.210;2023-01-29T12:58:55;59665.06;;;-143.63;100.00
74868;BME280;63419;42.262;12.210;2023-01-29T13:01:51;59665.06;;;-143.63;100.00
74868;BME280;63419;42.262;12.210;2023-01-29T13:04:52;59665.06;;;-143.63;100.00
74868;BME280;63419;42.262;12.210;2023-01-29T13:07:41;59665.06;;;-143.63;100.00
74868;BME280;63419;42.262;12.210;2023-01-29T13:10:19;59665.06;;;-143.63;100.00
74868;BME280;63419;42.262;12.210;2023-01-29T13:13:25;59665.06;;;-143.63;100.00
74868;BME280;63419;42.262;12.210;2023-01-29T13:15:55;59665.06;;;-143.63;100.00
74868;BME280;63419;42.262;12.210;2023-01-29T13:21:28;97669.78;;;20.53;55.43
74868;BME280;63419;42.262;12.210;2023-01-29T13:24:06;97678.53;;;20.62;55.02
74868;BME280;63419;42.262;12.210;2023-01-29T13:26:37;59665.06;;;-143.63;100.00
74868;BME280;63419;42.262;12.210;2023-01-29T13:29:30;59665.06;;;-143.63;100.00
74868;BME280;63419;42.262;12.210;2023-01-29T13:32:03;59665.06;;;-143.63;100.00
74868;BME280;63419;42.262;12.210;2023-01-29T13:34:36;59665.06;;;-143.63;100.00
74868;BME280;63419;42.262;12.210;2023-01-29T13:40:00;59665.06;;;-143.63;100.00
74868;BME280;63419;42.262;12.210;2023-01-29T13:42:43;59665.06;;;-143.63;100.00
74868;BME280;63419;42.262;12.210;2023-01-29T13:45:59;59665.06;;;-143.63;100.00
74868;BME280;63419;42.262;12.210;2023-01-29T13:48:48;59665.06;;;-143.63;100.00
74868;BME280;63419;42.262;12.210;2023-01-29T13:51:21;59665.06;;;-143.63;100.00
74868;BME280;63419;42.262;12.210;2023-01-29T13:53:59;59665.06;;;-143.63;100.00
74868;BME280;63419;42.262;12.210;2023-01-29T13:59:03;59665.06;;;-143.63;100.00
74868;BME280;63419;42.262;12.210;2023-01-29T14:04:30;59665.06;;;-143.63;100.00
74868;BME280;63419;42.262;12.210;2023-01-29T14:13:38;59665.06;;;-143.63;100.00
74868;BME280;63419;42.262;12.210;2023-01-29T14:18:58;59665.06;;;-143.63;100.00
74868;BME280;63419;42.262;12.210;2023-01-29T14:21:32;59665.06;;;-143.63;100.00
74868;BME280;63419;42.262;12.210;2023-01-29T14:24:21;59665.06;;;-143.63;100.00
74868;BME280;63419;42.262;12.210;2023-01-29T14:26:54;59665.06;;;-143.63;100.00
74868;BME280;63419;42.262;12.210;2023-01-29T14:29:28;59665.06;;;-143.63;100.00
74868;BME280;63419;42.262;12.210;2023-01-29T14:32:20;59665.06;;;-143.63;100.00
74868;BME280;63419;42.262;12.210;2023-01-29T14:34:53;59665.06;;;-143.63;100.00
74868;BME280;63419;42.262;12.210;2023-01-29T14:37:33;59665.06;;;-143.63;100.00
74868;BME280;63419;42.262;12.210;2023-01-29T14:40:29;59665.06;;;-143.63;100.00
74868;BME280;63419;42.262;12.210;2023-01-29T14:43:18;59665.06;;;-143.63;100.00
74868;BME280;63419;42.262;12.210;2023-01-29T14:45:48;59665.06;;;-143.63;100.00
74868;BME280;63419;42.262;12.210;2023-01-29T14:48:35;59665.06;;;-143.63;100.00
74868;BME280;63419;42.262;12.210;2023-01-29T14:51:15;59665.06;;;-143.63;100.00
74868;BME280;63419;42.262;12.210;2023-01-29T14:54:37;59665.06;;;-143.63;100.00
74868;BME280;63419;42.262;12.210;2023-01-29T14:57:14;59665.06;;;-143.63;100.00
74868;BME280;63419;42.262;12.210;2023-01-29T14:59:56;59665.06;;;-143.63;100.00
74868;BME280;63419;42.262;12.210;2023-01-29T15:05:10;59665.06;;;-143.63;100.00
74868;BME280;63419;42.262;12.210;2023-01-29T15:08:22;59665.06;;;-143.63;100.00
74868;BME280;63419;42.262;12.210;2023-01-29T15:11:00;59665.06;;;-143.63;100.00
74868;BME280;63419;42.262;12.210;2023-01-29T15:14:01;59665.06;;;-143.63;100.00
74868;BME280;63419;42.262;12.210;2023-01-29T15:19:44;59665.06;;;-143.63;100.00
74868;BME280;63419;42.262;12.210;2023-01-29T15:22:17;59665.06;;;-143.63;100.00
74868;BME280;63419;42.262;12.210;2023-01-29T15:25:00;59665.06;;;-143.63;100.00
74868;BME280;63419;42.262;12.210;2023-01-29T15:27:28;59665.06;;;-143.63;100.00
74868;BME280;63419;42.262;12.210;2023-01-29T15:30:00;59665.06;;;-143.63;100.00
74868;BME280;63419;42.262;12.210;2023-01-29T15:32:39;59665.06;;;-143.63;100.00
74868;BME280;63419;42.262;12.210;2023-01-29T15:35:22;59665.06;;;-143.63;100.00
74868;BME280;63419;42.262;12.210;2023-01-29T15:38:25;59665.06;;;-143.63;100.00
74868;BME280;63419;42.262;12.210;2023-01-29T15:41:17;59665.06;;;-143.63;100.00
74868;BME280;63419;42.262;12.210;2023-01-29T15:43:50;59665.06;;;-143.63;100.00
74868;BME280;63419;42.262;12.210;2023-01-29T15:46:31;59665.06;;;-143.63;100.00
74868;BME280;63419;42.262;12.210;2023-01-29T15:49:07;59665.06;;;-143.63;100.00